createdAt,value
2023-05-12T00:02:18.719Z,100821.02
2023-05-12T00:05:25.070Z,100821.37
2023-05-12T00:08:31.729Z,100814.36
2023-05-12T00:11:37.641Z,100822.40
2023-05-12T00:14:44.216Z,100815.19
2023-05-12T00:17:49.734Z,100815.56
2023-05-12T00:20:56.611Z,100810.58
2023-05-12T00:24:02.673Z,100815.54
2023-05-12T00:27:08.599Z,100820.28
2023-05-12T00:30:13.849Z,100819.32
2023-05-12T00:33:19.707Z,100823.62
2023-05-12T00:36:25.399Z,100814.23
2023-05-12T00:39:32.613Z,100816.14
2023-05-12T00:42:37.695Z,100820.57
2023-05-12T00:45:43.136Z,100824.17
2023-05-12T00:48:49.779Z,100821.77
2023-05-12T00:51:56.243Z,100824.19
2023-05-12T00:55:01.461Z,100823.66
2023-05-12T00:58:07.348Z,100821.78
2023-05-12T01:01:13.424Z,100822.63
2023-05-12T01:04:21.115Z,100825.38
2023-05-12T01:07:39.457Z,100819.39
2023-05-12T01:10:44.253Z,100822.48
2023-05-12T01:13:51.040Z,100822.86
2023-05-12T01:17:03.965Z,100819.42
2023-05-12T01:20:12.630Z,100817.70
2023-05-12T01:23:11.735Z,100817.16
2023-05-12T01:26:23.241Z,100823.14
2023-05-12T01:29:29.637Z,100823.98
2023-05-12T01:32:34.753Z,100822.77
2023-05-12T01:35:40.330Z,100819.32
2023-05-12T01:38:46.199Z,100824.07
2023-05-12T01:41:52.178Z,100821.95
2023-05-12T01:44:58.010Z,100822.38
2023-05-12T01:48:04.649Z,100821.07
2023-05-12T01:51:11.590Z,100817.99
2023-05-12T01:54:16.308Z,100815.97
2023-05-12T01:57:22.943Z,100822.96
2023-05-12T02:00:30.688Z,100814.44
2023-05-12T02:03:36.704Z,100818.20
2023-05-12T02:06:42.907Z,100825.87
2023-05-12T02:09:48.428Z,100824.34
2023-05-12T02:12:48.330Z,100824.83
2023-05-12T02:15:34.740Z,100833.04
2023-05-12T02:18:27.519Z,100827.18
2023-05-12T02:21:20.623Z,100834.04
2023-05-12T02:24:26.012Z,100829.44
2023-05-12T02:27:30.661Z,100827.22
2023-05-12T02:30:35.806Z,100830.72
2023-05-12T02:33:41.698Z,100833.50
2023-05-12T02:36:47.241Z,100834.48
2023-05-12T02:39:53.072Z,100836.30
2023-05-12T02:42:58.795Z,100843.98
2023-05-12T02:46:04.734Z,100843.73
2023-05-12T02:49:11.148Z,100840.02
2023-05-12T02:52:17.598Z,100843.58
2023-05-12T02:55:22.948Z,100839.12
2023-05-12T02:58:28.803Z,100845.30
2023-05-12T03:01:34.341Z,100840.52
2023-05-12T03:04:40.534Z,100843.95
2023-05-12T03:07:46.722Z,100843.28
2023-05-12T03:10:53.122Z,100848.83
2023-05-12T03:13:58.255Z,100843.94
2023-05-12T03:17:04.327Z,100855.13
2023-05-12T03:20:09.541Z,100860.79
2023-05-12T03:23:14.484Z,100865.70
2023-05-12T03:26:13.377Z,100864.84
2023-05-12T03:29:20.244Z,100864.72
2023-05-12T03:32:26.680Z,100873.88
2023-05-12T03:35:33.096Z,100871.30
2023-05-12T03:38:39.118Z,100878.71
2023-05-12T03:41:44.951Z,100877.08
2023-05-12T03:44:50.651Z,100874.52
2023-05-12T03:47:59.377Z,100873.68
2023-05-12T03:51:05.421Z,100871.95
2023-05-12T03:54:11.712Z,100876.53
2023-05-12T03:57:17.242Z,100878.56
2023-05-12T04:00:24.566Z,100875.09
2023-05-12T04:03:29.295Z,100873.86
2023-05-12T04:06:35.564Z,100875.67
2023-05-12T04:09:40.879Z,100870.24
2023-05-12T04:12:46.371Z,100876.42
2023-05-12T04:15:53.577Z,100872.68
2023-05-12T04:19:00.129Z,100874.84
2023-05-12T04:22:06.454Z,100868.89
2023-05-12T04:25:12.366Z,100868.34
2023-05-12T04:28:17.721Z,100873.47
2023-05-12T04:31:23.067Z,100877.39
2023-05-12T04:34:29.829Z,100873.70
2023-05-12T04:37:36.465Z,100872.01
2023-05-12T04:40:42.140Z,100871.16
2023-05-12T04:46:58.555Z,100877.41
2023-05-12T04:50:04.309Z,100876.25
2023-05-12T04:53:11.452Z,100878.95
2023-05-12T04:56:19.328Z,100879.90
2023-05-12T04:59:25.689Z,100879.36
2023-05-12T05:02:31.752Z,100878.72
2023-05-12T05:05:38.116Z,100881.80
2023-05-12T05:08:44.344Z,100881.23
2023-05-12T05:11:50.329Z,100876.42
2023-05-12T05:14:57.869Z,100884.27
2023-05-12T05:18:06.585Z,100876.97
2023-05-12T05:21:11.424Z,100878.36
2023-05-12T05:24:17.832Z,100884.25
2023-05-12T05:27:23.300Z,100881.26
2023-05-12T05:30:22.585Z,100883.88
2023-05-12T05:33:27.945Z,100884.80
2023-05-12T05:36:33.966Z,100889.28
2023-05-12T05:39:39.113Z,100885.45
2023-05-12T05:42:44.311Z,100888.71
2023-05-12T05:45:50.245Z,100887.79
2023-05-12T05:48:57.020Z,100891.77
2023-05-12T05:52:02.385Z,100886.66
2023-05-12T05:55:08.242Z,100881.03
2023-05-12T05:58:14.257Z,100892.91
2023-05-12T06:01:19.915Z,100895.24
2023-05-12T06:04:25.517Z,100894.33
2023-05-12T06:07:31.659Z,100889.12
2023-05-12T06:10:37.967Z,100889.75
2023-05-12T06:13:43.497Z,100890.16
2023-05-12T06:16:49.469Z,100888.55
2023-05-12T06:19:57.467Z,100895.52
2023-05-12T06:23:02.815Z,100898.98
2023-05-12T06:26:01.001Z,100894.91
2023-05-12T06:28:54.593Z,100882.36
2023-05-12T06:32:00.599Z,100884.09
2023-05-12T06:35:06.504Z,100880.94
2023-05-12T06:38:11.243Z,100884.50
2023-05-12T06:41:16.912Z,100879.24
2023-05-12T06:44:22.716Z,100889.07
2023-05-12T06:47:28.678Z,100889.30
2023-05-12T06:50:34.857Z,100889.84
2023-05-12T06:53:42.571Z,100890.37
2023-05-12T06:56:48.176Z,100891.00
2023-05-12T06:59:54.389Z,100897.56
2023-05-12T07:03:00.275Z,100891.45
2023-05-12T07:06:05.427Z,100888.67
2023-05-12T07:09:10.502Z,100899.13
2023-05-12T07:12:15.470Z,100900.64
2023-05-12T07:15:21.594Z,100899.73
2023-05-12T07:18:27.023Z,100897.29
2023-05-12T07:21:33.546Z,100905.55
2023-05-12T07:24:38.286Z,100897.91
2023-05-12T07:27:43.967Z,100901.52
2023-05-12T07:30:50.465Z,100906.98
2023-05-12T07:33:55.496Z,100904.64
2023-05-12T07:37:01.126Z,100906.58
2023-05-12T07:40:06.759Z,100899.53
2023-05-12T07:43:12.623Z,100897.59
2023-05-12T07:46:18.844Z,100901.58
2023-05-12T07:49:24.463Z,100890.28
2023-05-12T07:52:30.979Z,100898.90
2023-05-12T07:55:36.158Z,100891.06
2023-05-12T07:58:42.111Z,100885.91
2023-05-12T08:01:47.627Z,100899.64
2023-05-12T08:04:54.903Z,100887.63
2023-05-12T08:08:01.842Z,100895.81
2023-05-12T08:11:09.803Z,100891.47
2023-05-12T08:14:18.407Z,100889.31
2023-05-12T08:17:29.287Z,100876.61
2023-05-12T08:20:34.922Z,100881.22
2023-05-12T08:23:41.124Z,100884.41
2023-05-12T08:26:46.924Z,100876.84
2023-05-12T08:29:52.622Z,100875.52
2023-05-12T08:32:58.411Z,100862.25
2023-05-12T08:36:04.483Z,100864.00
2023-05-12T08:39:10.409Z,100858.75
2023-05-12T08:42:38.738Z,100856.98
2023-05-12T08:45:44.021Z,100871.74
2023-05-12T08:48:50.597Z,100877.09
2023-05-12T08:51:59.214Z,100868.06
2023-05-12T08:55:05.160Z,100871.15
2023-05-12T08:58:14.280Z,100862.31
2023-05-12T09:01:21.661Z,100847.61
2023-05-12T09:04:28.729Z,100852.94
2023-05-12T09:07:41.614Z,100848.50
2023-05-12T09:10:47.358Z,100858.53
2023-05-12T09:14:07.506Z,100847.64
2023-05-12T09:17:15.714Z,100848.95
2023-05-12T09:20:30.986Z,100857.34
2023-05-12T09:23:32.409Z,100851.45
2023-05-12T09:26:38.369Z,100845.65
2023-05-12T09:29:51.791Z,100851.16
2023-05-12T09:32:51.256Z,100846.36
2023-05-12T09:35:59.446Z,100852.78
2023-05-12T09:39:20.214Z,100856.91
2023-05-12T09:42:28.793Z,100851.69
2023-05-12T09:45:34.810Z,100850.73
2023-05-12T09:48:40.802Z,100832.77
2023-05-12T09:51:48.716Z,100833.98
2023-05-12T09:54:55.965Z,100822.58
2023-05-12T09:58:01.664Z,100826.72
2023-05-12T10:01:21.991Z,100830.97
2023-05-12T10:04:14.267Z,100831.81
2023-05-12T10:07:21.361Z,100825.64
2023-05-12T10:10:27.884Z,100828.06
2023-05-12T10:13:34.444Z,100817.39
2023-05-12T10:16:40.899Z,100817.06
2023-05-12T10:19:47.893Z,100811.61
2023-05-12T10:22:55.780Z,100817.16
2023-05-12T10:26:00.792Z,100815.58
2023-05-12T10:29:05.881Z,100802.78
2023-05-12T10:32:13.725Z,100804.96
2023-05-12T10:35:29.329Z,100800.06
2023-05-12T10:38:34.628Z,100812.32
2023-05-12T10:41:51.066Z,100801.45
2023-05-12T10:45:09.555Z,100800.91
2023-05-12T10:48:22.103Z,100793.92
2023-05-12T10:51:29.957Z,100791.30
2023-05-12T10:54:38.362Z,100799.79
2023-05-12T10:57:44.411Z,100784.22
2023-05-12T11:01:06.175Z,100802.82
2023-05-12T11:04:18.208Z,100789.14
2023-05-12T11:07:26.471Z,100802.29
2023-05-12T11:10:31.617Z,100789.89
2023-05-12T11:13:38.386Z,100790.50
2023-05-12T11:16:44.353Z,100795.12
2023-05-12T11:19:49.787Z,100792.53
2023-05-12T11:22:56.643Z,100789.00
2023-05-12T11:26:02.190Z,100784.19
2023-05-12T11:29:08.192Z,100779.17
2023-05-12T11:32:13.560Z,100779.34
2023-05-12T11:35:31.815Z,100778.84
2023-05-12T11:38:31.917Z,100772.70
2023-05-12T11:41:40.029Z,100787.88
2023-05-12T11:44:45.487Z,100774.38
2023-05-12T11:47:51.185Z,100777.95
2023-05-12T11:50:58.660Z,100767.16
2023-05-12T11:54:04.174Z,100772.45
2023-05-12T11:57:11.706Z,100755.81
2023-05-12T12:00:18.686Z,100758.45
2023-05-12T12:03:26.209Z,100768.60
2023-05-12T12:06:31.529Z,100762.55
2023-05-12T12:09:50.405Z,100774.38
2023-05-12T12:12:56.318Z,100766.92
2023-05-12T12:16:01.396Z,100762.07
2023-05-12T12:19:08.581Z,100763.97
2023-05-12T12:22:17.797Z,100750.16
2023-05-12T12:25:28.890Z,100754.86
2023-05-12T12:28:34.493Z,100754.84
2023-05-12T12:31:41.646Z,100754.63
2023-05-12T12:34:48.488Z,100761.83
2023-05-12T12:37:57.700Z,100749.20
2023-05-12T12:41:02.970Z,100749.20
2023-05-12T12:44:09.500Z,100739.09
2023-05-12T12:47:15.099Z,100739.58
2023-05-12T12:50:25.132Z,100740.33
2023-05-12T12:53:30.915Z,100745.77
2023-05-12T12:56:36.797Z,100742.28
2023-05-12T12:59:41.969Z,100736.06
2023-05-12T13:02:48.582Z,100730.69
2023-05-12T13:05:56.584Z,100736.16
2023-05-12T13:09:04.989Z,100738.69
2023-05-12T13:12:21.370Z,100742.31
2023-05-12T13:15:27.266Z,100751.73
2023-05-12T13:18:34.062Z,100751.23
2023-05-12T13:21:40.095Z,100740.69
2023-05-12T13:24:45.254Z,100746.40
2023-05-12T13:27:51.409Z,100742.63
2023-05-12T13:30:57.190Z,100733.77
2023-05-12T13:34:03.597Z,100740.54
2023-05-12T13:37:09.315Z,100731.51
2023-05-12T13:40:14.662Z,100731.57
2023-05-12T13:43:21.045Z,100726.87
2023-05-12T13:46:27.192Z,100733.08
2023-05-12T13:49:32.125Z,100733.36
2023-05-12T13:52:37.991Z,100738.09
2023-05-12T13:55:45.588Z,100736.09
2023-05-12T13:58:51.875Z,100741.75
2023-05-12T14:01:57.599Z,100734.59
2023-05-12T14:04:44.244Z,100734.73
2023-05-12T14:07:36.719Z,100735.97
2023-05-12T14:10:22.852Z,100732.64
2023-05-12T14:13:15.436Z,100734.37
2023-05-12T14:16:05.318Z,100741.19
2023-05-12T14:19:03.459Z,100731.68
2023-05-12T14:21:49.241Z,100740.16
2023-05-12T14:24:42.984Z,100730.33
2023-05-12T14:27:47.116Z,100730.41
2023-05-12T14:30:52.148Z,100730.73
2023-05-12T14:33:57.440Z,100730.83
2023-05-12T14:37:02.726Z,100728.95
2023-05-12T14:40:07.843Z,100724.28
2023-05-12T14:43:14.307Z,100714.36
2023-05-12T14:46:19.777Z,100717.94
2023-05-12T14:49:27.943Z,100721.64
2023-05-12T14:52:32.926Z,100715.66
2023-05-12T14:55:38.192Z,100717.97
2023-05-12T14:58:43.677Z,100713.17
2023-05-12T15:01:49.472Z,100710.38
2023-05-12T15:04:54.735Z,100714.11
2023-05-12T15:07:59.972Z,100711.30
2023-05-12T15:11:04.990Z,100714.28
2023-05-12T15:14:11.117Z,100709.27
2023-05-12T15:17:20.303Z,100710.30
2023-05-12T15:20:25.578Z,100700.97
2023-05-12T15:23:31.684Z,100703.11
2023-05-12T15:26:39.727Z,100703.64
2023-05-12T15:29:45.260Z,100709.50
2023-05-12T15:32:50.291Z,100696.30
2023-05-12T15:35:55.861Z,100700.98
2023-05-12T15:39:00.636Z,100698.95
2023-05-12T15:42:07.572Z,100704.89
2023-05-12T15:45:13.130Z,100709.64
2023-05-12T15:48:19.728Z,100708.86
2023-05-12T15:51:25.450Z,100714.64
2023-05-12T15:54:33.556Z,100720.47
2023-05-12T15:57:32.230Z,100713.33
2023-05-12T16:00:38.649Z,100707.12
2023-05-12T16:03:45.805Z,100708.47
2023-05-12T16:06:53.236Z,100703.83
2023-05-12T16:09:59.400Z,100703.36
2023-05-12T16:13:05.055Z,100704.75
2023-05-12T16:16:10.171Z,100709.03
2023-05-12T16:19:17.032Z,100710.80
2023-05-12T16:22:23.463Z,100705.16
2023-05-12T16:25:29.954Z,100700.67
2023-05-12T16:28:35.719Z,100711.55
2023-05-12T16:31:40.988Z,100709.75
2023-05-12T16:34:46.593Z,100704.33
2023-05-12T16:37:52.801Z,100710.67
2023-05-12T16:40:58.989Z,100712.31
2023-05-12T16:44:04.924Z,100724.66
2023-05-12T16:47:10.037Z,100718.84
2023-05-12T16:50:16.555Z,100726.80
2023-05-12T16:53:22.444Z,100724.97
2023-05-12T16:56:28.137Z,100725.69
2023-05-12T16:59:33.968Z,100735.44
2023-05-12T17:02:39.506Z,100732.08
2023-05-12T17:05:45.658Z,100739.78
2023-05-12T17:08:52.346Z,100744.75
2023-05-12T17:11:58.936Z,100739.59
2023-05-12T17:15:10.070Z,100744.83
2023-05-12T17:18:13.930Z,100741.80
2023-05-12T17:21:20.565Z,100743.77
2023-05-12T17:24:26.357Z,100746.78
2023-05-12T17:27:33.121Z,100739.91
2023-05-12T17:30:40.067Z,100755.20
2023-05-12T17:33:46.166Z,100753.16
2023-05-12T17:36:52.568Z,100749.47
2023-05-12T17:39:58.885Z,100754.00
2023-05-12T17:43:04.596Z,100761.12
2023-05-12T17:46:11.138Z,100763.27
2023-05-12T17:49:15.555Z,100765.50
2023-05-12T17:52:21.284Z,100771.77
2023-05-12T17:55:27.699Z,100767.80
2023-05-12T17:58:34.722Z,100769.66
2023-05-12T18:01:40.204Z,100770.23
2023-05-12T18:04:46.377Z,100775.80
2023-05-12T18:07:52.858Z,100772.75
2023-05-12T18:10:58.486Z,100772.55
2023-05-12T18:14:05.351Z,100771.28
2023-05-12T18:17:11.946Z,100783.20
2023-05-12T18:20:17.945Z,100783.42
2023-05-12T18:23:23.814Z,100781.94
2023-05-12T18:26:29.928Z,100786.39
2023-05-12T18:29:36.296Z,100791.06
2023-05-12T18:32:41.256Z,100792.35
2023-05-12T18:35:47.206Z,100790.17
2023-05-12T18:38:53.408Z,100792.30
2023-05-12T18:41:58.978Z,100788.88
2023-05-12T18:45:05.792Z,100796.36
2023-05-12T18:48:10.874Z,100797.03
2023-05-12T18:51:16.432Z,100792.52
2023-05-12T18:54:22.005Z,100796.14
2023-05-12T18:57:28.034Z,100791.88
2023-05-12T19:00:34.043Z,100787.73
2023-05-12T19:03:40.224Z,100796.20
2023-05-12T19:06:45.455Z,100790.55
2023-05-12T19:09:51.363Z,100793.53
2023-05-12T19:12:57.484Z,100789.60
2023-05-12T19:15:55.946Z,100792.37
2023-05-12T19:18:50.008Z,100790.36
2023-05-12T19:21:56.937Z,100784.88
2023-05-12T19:25:02.584Z,100783.98
2023-05-12T19:28:09.101Z,100776.94
2023-05-12T19:31:15.943Z,100774.93
2023-05-12T19:34:21.406Z,100767.83
2023-05-12T19:37:29.108Z,100772.09
2023-05-12T19:40:35.535Z,100770.59
2023-05-12T19:43:41.156Z,100769.63
2023-05-12T19:46:46.863Z,100773.99
2023-05-12T19:49:52.452Z,100763.88
2023-05-12T19:52:58.625Z,100763.88
2023-05-12T19:56:04.365Z,100770.48
2023-05-12T19:59:09.775Z,100771.80
2023-05-12T20:02:15.394Z,100766.94
2023-05-12T20:05:21.215Z,100764.27
2023-05-12T20:08:27.698Z,100771.85
2023-05-12T20:11:34.179Z,100769.00
2023-05-12T20:14:39.872Z,100771.27
2023-05-12T20:17:45.819Z,100779.77
2023-05-12T20:20:52.177Z,100775.72
2023-05-12T20:23:52.396Z,100778.07
2023-05-12T20:26:59.468Z,100779.85
2023-05-12T20:30:05.210Z,100772.21
2023-05-12T20:33:11.286Z,100774.69
2023-05-12T20:36:16.568Z,100774.50
2023-05-12T20:39:22.085Z,100776.55
2023-05-12T20:42:26.981Z,100781.53
2023-05-12T20:45:32.667Z,100780.53
2023-05-12T20:48:37.616Z,100780.72
2023-05-12T20:51:43.274Z,100782.73
2023-05-12T20:54:48.623Z,100781.34
2023-05-12T20:57:54.733Z,100789.30
2023-05-12T21:01:01.074Z,100787.71
2023-05-12T21:04:06.964Z,100790.82
2023-05-12T21:07:06.917Z,100792.31
2023-05-12T21:10:12.935Z,100790.92
2023-05-12T21:13:19.106Z,100794.84
2023-05-12T21:16:24.684Z,100798.08
2023-05-12T21:19:29.406Z,100796.67
2023-05-12T21:22:35.983Z,100793.94
2023-05-12T21:25:42.583Z,100788.85
2023-05-12T21:28:48.349Z,100787.33
2023-05-12T21:31:55.586Z,100784.46
2023-05-12T21:35:01.377Z,100787.71
2023-05-12T21:38:06.751Z,100787.98
2023-05-12T21:41:12.518Z,100795.11
2023-05-12T21:44:17.794Z,100792.11
2023-05-12T21:47:23.167Z,100791.93
2023-05-12T21:50:31.039Z,100792.81
2023-05-12T21:53:36.455Z,100788.59
2023-05-12T21:56:42.104Z,100792.52
2023-05-12T21:59:47.121Z,100788.95
2023-05-12T22:02:54.880Z,100787.06
2023-05-12T22:06:01.818Z,100785.43
2023-05-12T22:09:06.965Z,100793.42
2023-05-12T22:12:11.824Z,100790.51
2023-05-12T22:15:17.510Z,100785.49
2023-05-12T22:18:23.036Z,100791.56
2023-05-12T22:21:29.542Z,100793.97
2023-05-12T22:24:35.280Z,100792.09
2023-05-12T22:27:41.014Z,100791.43
2023-05-12T22:30:46.451Z,100789.87
2023-05-12T22:33:52.095Z,100792.91
2023-05-12T22:36:57.651Z,100789.45
2023-05-12T22:40:03.751Z,100793.47
2023-05-12T22:43:09.780Z,100790.45
2023-05-12T22:46:16.751Z,100787.51
2023-05-12T22:49:22.290Z,100793.45
2023-05-12T22:52:29.049Z,100789.26
2023-05-12T22:55:37.146Z,100786.20
2023-05-12T22:58:43.074Z,100788.11
2023-05-12T23:01:49.534Z,100793.19
2023-05-12T23:04:56.387Z,100786.03
2023-05-12T23:08:03.241Z,100789.47
2023-05-12T23:11:09.688Z,100784.22
2023-05-12T23:14:15.441Z,100783.31
2023-05-12T23:17:21.819Z,100784.01
2023-05-12T23:20:27.683Z,100782.05
2023-05-12T23:23:33.327Z,100786.92
2023-05-12T23:26:39.377Z,100788.88
2023-05-12T23:29:44.117Z,100792.48
2023-05-12T23:32:50.243Z,100790.31
2023-05-12T23:35:57.615Z,100792.00
2023-05-12T23:39:04.202Z,100787.58
2023-05-12T23:42:10.277Z,100792.53
2023-05-12T23:45:14.804Z,100787.40
2023-05-12T23:48:20.676Z,100789.55
2023-05-12T23:51:26.309Z,100790.47
2023-05-12T23:54:31.757Z,100791.64
2023-05-12T23:57:36.881Z,100792.16
